sensor_id;sensor_type;location;lat;lon;timestamp;pressure;altitude;pressure_sealevel;temperature;humidity
59073;BME280;44859;51.934;15.554;2023-05-03T00:00:39;100712.62;;;5.51;70.83
59073;BME280;44859;51.934;15.554;2023-05-03T00:03:11;100715.39;;;5.51;70.79
59073;BME280;44859;51.934;15.554;2023-05-03T00:05:41;100716.91;;;5.55;70.77
59073;BME280;44859;51.934;15.554;2023-05-03T00:08:10;100719.33;;;5.57;70.71
59073;BME280;44859;51.934;15.554;2023-05-03T00:10:39;100718.80;;;5.57;70.71
59073;BME280;44859;51.934;15.554;2023-05-03T00:13:08;100719.69;;;5.56;70.81
59073;BME280;44859;51.934;15.554;2023-05-03T00:15:37;100722.46;;;5.57;70.52
59073;BME280;44859;51.934;15.554;2023-05-03T00:18:09;100720.41;;;5.53;70.69
59073;BME280;44859;51.934;15.554;2023-05-03T00:20:37;100717.83;;;5.51;70.79
59073;BME280;44859;51.934;15.554;2023-05-03T00:23:06;100719.42;;;5.50;70.85
59073;BME280;44859;51.934;15.554;2023-05-03T00:25:36;100719.09;;;5.49;70.72
59073;BME280;44859;51.934;15.554;2023-05-03T00:28:04;100724.14;;;5.48;70.63
59073;BME280;44859;51.934;15.554;2023-05-03T00:30:32;100723.77;;;5.50;70.79
59073;BME280;44859;51.934;15.554;2023-05-03T00:33:00;100725.13;;;5.53;70.63
59073;BME280;44859;51.934;15.554;2023-05-03T00:35:32;100725.27;;;5.56;70.54
59073;BME280;44859;51.934;15.554;2023-05-03T00:38:01;100725.42;;;5.57;70.37
59073;BME280;44859;51.934;15.554;2023-05-03T00:40:29;100723.85;;;5.57;70.34
59073;BME280;44859;51.934;15.554;2023-05-03T00:42:58;100725.45;;;5.55;70.58
59073;BME280;44859;51.934;15.554;2023-05-03T00:45:26;100724.62;;;5.52;70.62
59073;BME280;44859;51.934;15.554;2023-05-03T00:47:57;100723.97;;;5.48;70.64
59073;BME280;44859;51.934;15.554;2023-05-03T00:50:25;100729.06;;;5.45;70.63
59073;BME280;44859;51.934;15.554;2023-05-03T00:52:53;100727.39;;;5.40;70.75
59073;BME280;44859;51.934;15.554;2023-05-03T00:55:22;100730.38;;;5.36;70.72
59073;BME280;44859;51.934;15.554;2023-05-03T00:57:53;100731.99;;;5.33;70.87
59073;BME280;44859;51.934;15.554;2023-05-03T01:00:23;100733.40;;;5.31;70.89
59073;BME280;44859;51.934;15.554;2023-05-03T01:02:51;100735.86;;;5.30;70.72
59073;BME280;44859;51.934;15.554;2023-05-03T01:05:21;100735.36;;;5.28;70.92
59073;BME280;44859;51.934;15.554;2023-05-03T01:08:18;100733.13;;;5.27;71.05
59073;BME280;44859;51.934;15.554;2023-05-03T01:13:39;100729.41;;;5.30;70.87
59073;BME280;44859;51.934;15.554;2023-05-03T01:18:44;100736.05;;;5.28;70.87
59073;BME280;44859;51.934;15.554;2023-05-03T01:21:16;100731.89;;;5.27;71.07
59073;BME280;44859;51.934;15.554;2023-05-03T01:26:33;100730.14;;;5.28;70.94
59073;BME280;44859;51.934;15.554;2023-05-03T01:29:02;100732.89;;;5.30;71.01
59073;BME280;44859;51.934;15.554;2023-05-03T01:31:38;100732.52;;;5.33;70.89
59073;BME280;44859;51.934;15.554;2023-05-03T01:36:44;100733.14;;;5.39;70.85
59073;BME280;44859;51.934;15.554;2023-05-03T01:39:18;100736.07;;;5.42;70.77
59073;BME280;44859;51.934;15.554;2023-05-03T01:41:49;100735.36;;;5.43;70.99
59073;BME280;44859;51.934;15.554;2023-05-03T01:44:21;100732.40;;;5.43;70.97
59073;BME280;44859;51.934;15.554;2023-05-03T01:46:50;100733.25;;;5.45;70.88
59073;BME280;44859;51.934;15.554;2023-05-03T01:49:20;100731.66;;;5.46;70.78
59073;BME280;44859;51.934;15.554;2023-05-03T01:51:49;100731.50;;;5.46;71.06
59073;BME280;44859;51.934;15.554;2023-05-03T01:54:17;100730.59;;;5.48;70.86
59073;BME280;44859;51.934;15.554;2023-05-03T01:56:46;100734.21;;;5.52;70.77
59073;BME280;44859;51.934;15.554;2023-05-03T01:59:14;100731.52;;;5.56;70.58
59073;BME280;44859;51.934;15.554;2023-05-03T02:01:43;100729.22;;;5.60;70.53
59073;BME280;44859;51.934;15.554;2023-05-03T02:04:12;100732.32;;;5.63;70.52
59073;BME280;44859;51.934;15.554;2023-05-03T02:06:41;100736.11;;;5.66;70.44
59073;BME280;44859;51.934;15.554;2023-05-03T02:09:10;100734.68;;;5.68;70.49
59073;BME280;44859;51.934;15.554;2023-05-03T02:11:38;100736.06;;;5.70;70.27
59073;BME280;44859;51.934;15.554;2023-05-03T02:14:06;100735.34;;;5.72;70.18
59073;BME280;44859;51.934;15.554;2023-05-03T02:16:35;100734.27;;;5.74;70.13
59073;BME280;44859;51.934;15.554;2023-05-03T02:19:03;100726.73;;;5.77;70.10
59073;BME280;44859;51.934;15.554;2023-05-03T02:21:33;100730.34;;;5.80;70.22
59073;BME280;44859;51.934;15.554;2023-05-03T02:24:02;100726.48;;;5.82;70.16
59073;BME280;44859;51.934;15.554;2023-05-03T02:26:30;100729.73;;;5.86;69.99
59073;BME280;44859;51.934;15.554;2023-05-03T02:28:59;100727.05;;;5.90;69.87
59073;BME280;44859;51.934;15.554;2023-05-03T02:31:27;100727.70;;;5.92;69.80
59073;BME280;44859;51.934;15.554;2023-05-03T02:33:55;100728.04;;;5.94;69.78
59073;BME280;44859;51.934;15.554;2023-05-03T02:36:24;100732.41;;;5.93;69.84
59073;BME280;44859;51.934;15.554;2023-05-03T02:38:52;100733.48;;;5.92;69.43
59073;BME280;44859;51.934;15.554;2023-05-03T02:41:21;100732.25;;;5.92;69.52
59073;BME280;44859;51.934;15.554;2023-05-03T02:43:49;100729.44;;;5.94;69.48
59073;BME280;44859;51.934;15.554;2023-05-03T02:46:17;100732.20;;;5.95;69.57
59073;BME280;44859;51.934;15.554;2023-05-03T02:48:46;100733.44;;;5.98;69.51
59073;BME280;44859;51.934;15.554;2023-05-03T02:51:14;100736.72;;;5.99;69.43
59073;BME280;44859;51.934;15.554;2023-05-03T02:53:42;100733.40;;;5.99;69.55
59073;BME280;44859;51.934;15.554;2023-05-03T02:56:10;100734.81;;;5.99;69.28
59073;BME280;44859;51.934;15.554;2023-05-03T02:58:39;100742.63;;;6.01;69.38
59073;BME280;44859;51.934;15.554;2023-05-03T03:01:07;100741.91;;;6.02;69.43
59073;BME280;44859;51.934;15.554;2023-05-03T03:03:35;100745.90;;;6.03;69.45
59073;BME280;44859;51.934;15.554;2023-05-03T03:06:04;100747.98;;;6.04;69.26
59073;BME280;44859;51.934;15.554;2023-05-03T03:08:33;100745.02;;;6.04;69.10
59073;BME280;44859;51.934;15.554;2023-05-03T03:11:02;100745.55;;;6.04;69.16
59073;BME280;44859;51.934;15.554;2023-05-03T03:13:30;100745.20;;;6.04;69.22
59073;BME280;44859;51.934;15.554;2023-05-03T03:15:58;100748.20;;;6.01;69.30
59073;BME280;44859;51.934;15.554;2023-05-03T03:18:27;100747.02;;;5.97;69.33
59073;BME280;44859;51.934;15.554;2023-05-03T03:20:55;100748.61;;;5.95;69.12
59073;BME280;44859;51.934;15.554;2023-05-03T03:23:23;100751.08;;;5.92;69.12
59073;BME280;44859;51.934;15.554;2023-05-03T03:25:51;100751.80;;;5.91;69.10
59073;BME280;44859;51.934;15.554;2023-05-03T03:28:20;100752.89;;;5.88;69.21
59073;BME280;44859;51.934;15.554;2023-05-03T03:30:49;100753.08;;;5.87;69.13
59073;BME280;44859;51.934;15.554;2023-05-03T03:33:17;100756.26;;;5.84;69.37
59073;BME280;44859;51.934;15.554;2023-05-03T03:35:46;100754.88;;;5.82;69.10
59073;BME280;44859;51.934;15.554;2023-05-03T03:38:14;100756.46;;;5.81;69.48
59073;BME280;44859;51.934;15.554;2023-05-03T03:40:42;100761.00;;;5.81;69.38
59073;BME280;44859;51.934;15.554;2023-05-03T03:43:10;100759.09;;;5.81;69.32
59073;BME280;44859;51.934;15.554;2023-05-03T03:45:38;100759.80;;;5.80;69.39
59073;BME280;44859;51.934;15.554;2023-05-03T03:48:07;100760.52;;;5.79;69.46
59073;BME280;44859;51.934;15.554;2023-05-03T03:50:36;100762.64;;;5.77;69.32
59073;BME280;44859;51.934;15.554;2023-05-03T03:53:04;100767.02;;;5.75;69.53
59073;BME280;44859;51.934;15.554;2023-05-03T03:55:33;100770.33;;;5.74;69.30
59073;BME280;44859;51.934;15.554;2023-05-03T03:58:02;100770.14;;;5.76;69.58
59073;BME280;44859;51.934;15.554;2023-05-03T04:00:30;100774.98;;;5.79;69.59
59073;BME280;44859;51.934;15.554;2023-05-03T04:02:58;100774.96;;;5.80;69.88
59073;BME280;44859;51.934;15.554;2023-05-03T04:05:27;100777.55;;;5.82;69.78
59073;BME280;44859;51.934;15.554;2023-05-03T04:07:55;100780.31;;;5.85;69.80
59073;BME280;44859;51.934;15.554;2023-05-03T04:10:23;100785.86;;;5.86;69.66
59073;BME280;44859;51.934;15.554;2023-05-03T04:12:52;100785.14;;;5.88;69.67
59073;BME280;44859;51.934;15.554;2023-05-03T04:15:20;100788.77;;;5.90;69.71
59073;BME280;44859;51.934;15.554;2023-05-03T04:17:48;100795.91;;;5.90;69.85
59073;BME280;44859;51.934;15.554;2023-05-03T04:20:17;100799.90;;;5.92;69.88
59073;BME280;44859;51.934;15.554;2023-05-03T04:22:46;100800.73;;;5.96;70.07
59073;BME280;44859;51.934;15.554;2023-05-03T04:25:14;100805.77;;;5.98;70.07
59073;BME280;44859;51.934;15.554;2023-05-03T04:27:44;100809.23;;;6.01;70.11
59073;BME280;44859;51.934;15.554;2023-05-03T04:30:13;100815.83;;;6.03;70.02
59073;BME280;44859;51.934;15.554;2023-05-03T04:32:42;100817.17;;;6.07;69.86
59073;BME280;44859;51.934;15.554;2023-05-03T04:35:10;100819.92;;;6.10;70.08
59073;BME280;44859;51.934;15.554;2023-05-03T04:37:39;100823.38;;;6.12;69.97
59073;BME280;44859;51.934;15.554;2023-05-03T04:40:09;100826.68;;;6.13;70.03
59073;BME280;44859;51.934;15.554;2023-05-03T04:42:39;100827.69;;;6.16;70.12
59073;BME280;44859;51.934;15.554;2023-05-03T04:45:10;100831.31;;;6.19;69.93
59073;BME280;44859;51.934;15.554;2023-05-03T04:47:39;100837.02;;;6.23;69.76
59073;BME280;44859;51.934;15.554;2023-05-03T04:50:07;100838.42;;;6.22;69.34
59073;BME280;44859;51.934;15.554;2023-05-03T04:52:38;100838.41;;;6.23;69.05
59073;BME280;44859;51.934;15.554;2023-05-03T04:55:07;100838.14;;;6.29;69.38
59073;BME280;44859;51.934;15.554;2023-05-03T04:57:35;100840.81;;;6.37;68.83
59073;BME280;44859;51.934;15.554;2023-05-03T05:00:04;100842.11;;;6.44;68.82
59073;BME280;44859;51.934;15.554;2023-05-03T05:02:38;100840.05;;;6.53;68.80
59073;BME280;44859;51.934;15.554;2023-05-03T05:05:07;100843.28;;;6.58;68.74
59073;BME280;44859;51.934;15.554;2023-05-03T05:07:36;100846.76;;;6.60;68.46
59073;BME280;44859;51.934;15.554;2023-05-03T05:10:05;100848.61;;;6.64;68.40
59073;BME280;44859;51.934;15.554;2023-05-03T05:12:38;100850.78;;;6.71;68.15
59073;BME280;44859;51.934;15.554;2023-05-03T05:15:07;100847.88;;;6.78;68.22
59073;BME280;44859;51.934;15.554;2023-05-03T05:17:39;100853.59;;;6.80;68.05
59073;BME280;44859;51.934;15.554;2023-05-03T05:20:08;100855.15;;;6.81;67.85
59073;BME280;44859;51.934;15.554;2023-05-03T05:22:39;100859.52;;;6.82;67.81
59073;BME280;44859;51.934;15.554;2023-05-03T05:25:09;100859.29;;;6.85;67.51
59073;BME280;44859;51.934;15.554;2023-05-03T05:27:39;100861.26;;;6.82;67.53
59073;BME280;44859;51.934;15.554;2023-05-03T05:30:08;100859.58;;;6.78;67.46
59073;BME280;44859;51.934;15.554;2023-05-03T05:32:44;100862.26;;;6.73;67.59
59073;BME280;44859;51.934;15.554;2023-05-03T05:35:12;100865.63;;;6.70;67.24
59073;BME280;44859;51.934;15.554;2023-05-03T05:37:44;100868.63;;;6.68;67.55
59073;BME280;44859;51.934;15.554;2023-05-03T05:40:14;100868.80;;;6.70;67.60
59073;BME280;44859;51.934;15.554;2023-05-03T05:42:45;100870.26;;;6.76;67.59
59073;BME280;44859;51.934;15.554;2023-05-03T05:45:18;100871.77;;;6.79;67.67
59073;BME280;44859;51.934;15.554;2023-05-03T05:47:49;100874.27;;;6.87;67.50
59073;BME280;44859;51.934;15.554;2023-05-03T05:50:20;100871.28;;;6.98;68.07
59073;BME280;44859;51.934;15.554;2023-05-03T05:52:54;100869.73;;;7.08;67.87
59073;BME280;44859;51.934;15.554;2023-05-03T05:55:25;100868.05;;;7.24;67.67
59073;BME280;44859;51.934;15.554;2023-05-03T05:57:53;100872.14;;;7.48;67.23
59073;BME280;44859;51.934;15.554;2023-05-03T06:00:25;100874.39;;;7.60;67.25
59073;BME280;44859;51.934;15.554;2023-05-03T06:02:53;100874.46;;;7.56;66.33
59073;BME280;44859;51.934;15.554;2023-05-03T06:05:22;100876.55;;;7.46;66.45
59073;BME280;44859;51.934;15.554;2023-05-03T06:07:53;100879.67;;;7.48;66.46
59073;BME280;44859;51.934;15.554;2023-05-03T06:10:21;100881.11;;;7.46;66.01
59073;BME280;44859;51.934;15.554;2023-05-03T06:12:50;100876.86;;;7.39;65.69
59073;BME280;44859;51.934;15.554;2023-05-03T06:15:21;100881.95;;;7.29;65.63
59073;BME280;44859;51.934;15.554;2023-05-03T06:17:50;100883.00;;;7.38;65.97
59073;BME280;44859;51.934;15.554;2023-05-03T06:20:19;100884.82;;;7.53;65.76
59073;BME280;44859;51.934;15.554;2023-05-03T06:22:47;100885.79;;;7.67;65.36
59073;BME280;44859;51.934;15.554;2023-05-03T06:25:15;100881.23;;;7.77;65.19
59073;BME280;44859;51.934;15.554;2023-05-03T06:27:45;100881.30;;;7.83;64.74
59073;BME280;44859;51.934;15.554;2023-05-03T06:30:14;100880.55;;;7.84;64.32
59073;BME280;44859;51.934;15.554;2023-05-03T06:32:46;100883.56;;;8.00;64.81
59073;BME280;44859;51.934;15.554;2023-05-03T06:35:15;100879.48;;;8.51;64.15
59073;BME280;44859;51.934;15.554;2023-05-03T06:37:47;100885.29;;;9.02;63.52
59073;BME280;44859;51.934;15.554;2023-05-03T06:40:15;100881.50;;;9.27;63.01
59073;BME280;44859;51.934;15.554;2023-05-03T06:42:43;100880.95;;;9.55;62.19
59073;BME280;44859;51.934;15.554;2023-05-03T06:45:12;100880.24;;;9.62;62.04
59073;BME280;44859;51.934;15.554;2023-05-03T06:47:40;100878.86;;;9.61;60.83
59073;BME280;44859;51.934;15.554;2023-05-03T06:50:10;100883.45;;;9.60;60.35
59073;BME280;44859;51.934;15.554;2023-05-03T06:52:38;100882.08;;;9.72;59.82
59073;BME280;44859;51.934;15.554;2023-05-03T06:55:10;100878.85;;;9.87;60.34
59073;BME280;44859;51.934;15.554;2023-05-03T06:57:40;100878.23;;;10.08;58.77
59073;BME280;44859;51.934;15.554;2023-05-03T07:00:09;100879.76;;;10.28;58.51
59073;BME280;44859;51.934;15.554;2023-05-03T07:02:38;100883.25;;;10.41;57.49
59073;BME280;44859;51.934;15.554;2023-05-03T07:05:07;100886.47;;;10.39;56.84
59073;BME280;44859;51.934;15.554;2023-05-03T07:07:35;100888.30;;;10.43;56.10
59073;BME280;44859;51.934;15.554;2023-05-03T07:10:14;100885.64;;;10.43;55.64
59073;BME280;44859;51.934;15.554;2023-05-03T07:12:51;100890.17;;;10.50;54.56
59073;BME280;44859;51.934;15.554;2023-05-03T07:15:20;100890.05;;;10.37;55.15
59073;BME280;44859;51.934;15.554;2023-05-03T07:17:48;100895.16;;;10.42;54.79
59073;BME280;44859;51.934;15.554;2023-05-03T07:20:16;100897.67;;;10.40;55.10
59073;BME280;44859;51.934;15.554;2023-05-03T07:22:45;100892.04;;;10.41;54.36
59073;BME280;44859;51.934;15.554;2023-05-03T07:25:13;100892.80;;;10.32;54.46
59073;BME280;44859;51.934;15.554;2023-05-03T07:27:44;100892.58;;;10.34;54.33
59073;BME280;44859;51.934;15.554;2023-05-03T07:30:13;100897.09;;;10.30;55.09
59073;BME280;44859;51.934;15.554;2023-05-03T07:32:43;100898.09;;;10.38;54.23
59073;BME280;44859;51.934;15.554;2023-05-03T07:35:11;100897.83;;;10.34;53.70
59073;BME280;44859;51.934;15.554;2023-05-03T07:37:39;100893.02;;;10.06;53.96
59073;BME280;44859;51.934;15.554;2023-05-03T07:40:08;100892.92;;;10.03;54.61
59073;BME280;44859;51.934;15.554;2023-05-03T07:42:39;100893.02;;;10.19;54.14
59073;BME280;44859;51.934;15.554;2023-05-03T07:45:08;100891.94;;;10.50;53.55
59073;BME280;44859;51.934;15.554;2023-05-03T07:47:37;100893.98;;;10.85;53.58
59073;BME280;44859;51.934;15.554;2023-05-03T07:50:07;100892.83;;;11.00;50.25
59073;BME280;44859;51.934;15.554;2023-05-03T07:52:37;100893.53;;;10.89;50.50
59073;BME280;44859;51.934;15.554;2023-05-03T07:55:07;100893.02;;;10.88;50.89
59073;BME280;44859;51.934;15.554;2023-05-03T07:57:35;100888.44;;;10.72;50.01
59073;BME280;44859;51.934;15.554;2023-05-03T08:00:04;100892.46;;;10.67;50.69
59073;BME280;44859;51.934;15.554;2023-05-03T08:02:33;100893.46;;;10.91;50.77
59073;BME280;44859;51.934;15.554;2023-05-03T08:05:02;100884.95;;;11.25;50.18
59073;BME280;44859;51.934;15.554;2023-05-03T08:07:32;100880.91;;;11.40;49.62
59073;BME280;44859;51.934;15.554;2023-05-03T08:10:01;100884.81;;;11.29;50.44
59073;BME280;44859;51.934;15.554;2023-05-03T08:12:30;100885.44;;;11.31;49.73
59073;BME280;44859;51.934;15.554;2023-05-03T08:14:58;100893.55;;;11.15;49.94
59073;BME280;44859;51.934;15.554;2023-05-03T08:17:26;100895.56;;;10.96;49.56
59073;BME280;44859;51.934;15.554;2023-05-03T08:19:55;100893.87;;;10.72;50.01
59073;BME280;44859;51.934;15.554;2023-05-03T08:22:24;100891.47;;;10.48;50.27
59073;BME280;44859;51.934;15.554;2023-05-03T08:24:53;100891.12;;;10.42;50.56
59073;BME280;44859;51.934;15.554;2023-05-03T08:27:23;100891.36;;;10.34;51.15
59073;BME280;44859;51.934;15.554;2023-05-03T08:29:53;100887.73;;;10.25;49.31
59073;BME280;44859;51.934;15.554;2023-05-03T08:32:21;100889.27;;;10.21;50.50
59073;BME280;44859;51.934;15.554;2023-05-03T08:34:51;100888.58;;;10.26;50.43
59073;BME280;44859;51.934;15.554;2023-05-03T08:37:20;100885.35;;;10.29;50.67
59073;BME280;44859;51.934;15.554;2023-05-03T08:39:49;100888.70;;;10.35;50.32
59073;BME280;44859;51.934;15.554;2023-05-03T08:42:18;100889.98;;;10.26;49.89
59073;BME280;44859;51.934;15.554;2023-05-03T08:44:47;100891.46;;;10.12;49.59
59073;BME280;44859;51.934;15.554;2023-05-03T08:47:16;100893.39;;;9.94;49.29
59073;BME280;44859;51.934;15.554;2023-05-03T08:49:46;100892.20;;;9.86;49.66
59073;BME280;44859;51.934;15.554;2023-05-03T08:52:14;100895.48;;;9.82;49.91
59073;BME280;44859;51.934;15.554;2023-05-03T08:54:45;100893.40;;;9.94;49.99
59073;BME280;44859;51.934;15.554;2023-05-03T08:57:15;100891.29;;;10.24;49.32
59073;BME280;44859;51.934;15.554;2023-05-03T08:59:51;100890.59;;;10.48;48.53
59073;BME280;44859;51.934;15.554;2023-05-03T09:02:28;100886.48;;;11.10;49.52
59073;BME280;44859;51.934;15.554;2023-05-03T09:04:57;100875.10;;;11.70;47.00
59073;BME280;44859;51.934;15.554;2023-05-03T09:07:26;100878.42;;;12.00;47.42
59073;BME280;44859;51.934;15.554;2023-05-03T09:09:54;100872.75;;;12.25;47.84
59073;BME280;44859;51.934;15.554;2023-05-03T09:12:35;100874.52;;;12.38;45.54
59073;BME280;44859;51.934;15.554;2023-05-03T09:15:05;100870.39;;;12.27;45.03
59073;BME280;44859;51.934;15.554;2023-05-03T09:17:36;100878.21;;;11.96;45.73
59073;BME280;44859;51.934;15.554;2023-05-03T09:20:04;100891.08;;;11.66;45.51
59073;BME280;44859;51.934;15.554;2023-05-03T09:22:36;100891.30;;;11.55;46.44
59073;BME280;44859;51.934;15.554;2023-05-03T09:25:16;100892.09;;;11.62;46.39
59073;BME280;44859;51.934;15.554;2023-05-03T09:27:59;100886.16;;;11.90;46.50
59073;BME280;44859;51.934;15.554;2023-05-03T09:30:29;100889.20;;;12.23;45.08
59073;BME280;44859;51.934;15.554;2023-05-03T09:33:05;100883.16;;;12.29;44.40
59073;BME280;44859;51.934;15.554;2023-05-03T09:35:34;100884.06;;;12.42;43.82
59073;BME280;44859;51.934;15.554;2023-05-03T09:38:05;100879.94;;;12.48;44.34
59073;BME280;44859;51.934;15.554;2023-05-03T09:40:45;100878.25;;;12.77;44.50
59073;BME280;44859;51.934;15.554;2023-05-03T09:43:14;100876.04;;;13.09;44.43
59073;BME280;44859;51.934;15.554;2023-05-03T09:45:47;100876.23;;;13.18;43.76
59073;BME280;44859;51.934;15.554;2023-05-03T09:48:16;100875.46;;;13.11;43.74
59073;BME280;44859;51.934;15.554;2023-05-03T09:50:46;100885.73;;;12.53;42.62
59073;BME280;44859;51.934;15.554;2023-05-03T09:53:15;100888.13;;;12.00;43.19
59073;BME280;44859;51.934;15.554;2023-05-03T09:55:47;100885.49;;;11.70;43.85
59073;BME280;44859;51.934;15.554;2023-05-03T09:58:18;100889.83;;;11.21;43.75
59073;BME280;44859;51.934;15.554;2023-05-03T10:00:48;100883.09;;;11.12;44.18
59073;BME280;44859;51.934;15.554;2023-05-03T10:03:44;100878.66;;;11.28;44.22
59073;BME280;44859;51.934;15.554;2023-05-03T10:06:39;100872.42;;;11.86;44.39
59073;BME280;44859;51.934;15.554;2023-05-03T10:09:30;100869.94;;;12.38;44.64
59073;BME280;44859;51.934;15.554;2023-05-03T10:12:08;100870.16;;;12.46;43.72
59073;BME280;44859;51.934;15.554;2023-05-03T10:14:51;100873.44;;;12.70;43.55
59073;BME280;44859;51.934;15.554;2023-05-03T10:17:24;100872.55;;;13.09;43.17
59073;BME280;44859;51.934;15.554;2023-05-03T10:20:27;100861.93;;;13.27;42.93
59073;BME280;44859;51.934;15.554;2023-05-03T10:25:36;100857.39;;;14.13;41.97
59073;BME280;44859;51.934;15.554;2023-05-03T10:28:10;100855.75;;;14.37;41.47
59073;BME280;44859;51.934;15.554;2023-05-03T10:30:40;100852.34;;;14.46;40.63
59073;BME280;44859;51.934;15.554;2023-05-03T10:35:42;100845.75;;;14.62;39.68
59073;BME280;44859;51.934;15.554;2023-05-03T10:38:25;100840.66;;;14.68;40.67
59073;BME280;44859;51.934;15.554;2023-05-03T10:40:57;100838.02;;;15.04;39.45
59073;BME280;44859;51.934;15.554;2023-05-03T10:46:08;100845.50;;;14.85;39.21
59073;BME280;44859;51.934;15.554;2023-05-03T10:49:16;100844.86;;;14.43;39.27
59073;BME280;44859;51.934;15.554;2023-05-03T10:51:49;100842.96;;;14.46;39.65
59073;BME280;44859;51.934;15.554;2023-05-03T10:54:18;100840.33;;;14.30;38.75
59073;BME280;44859;51.934;15.554;2023-05-03T10:56:51;100838.07;;;14.04;38.63
59073;BME280;44859;51.934;15.554;2023-05-03T10:59:48;100837.80;;;13.86;38.33
59073;BME280;44859;51.934;15.554;2023-05-03T11:02:29;100831.95;;;14.13;39.14
59073;BME280;44859;51.934;15.554;2023-05-03T11:05:25;100830.26;;;13.93;39.59
59073;BME280;44859;51.934;15.554;2023-05-03T11:08:15;100831.41;;;14.36;39.40
59073;BME280;44859;51.934;15.554;2023-05-03T11:10:56;100831.26;;;15.08;38.42
59073;BME280;44859;51.934;15.554;2023-05-03T11:13:26;100836.26;;;15.18;38.02
59073;BME280;44859;51.934;15.554;2023-05-03T11:16:29;100838.38;;;14.71;36.93
59073;BME280;44859;51.934;15.554;2023-05-03T11:19:04;100836.84;;;14.03;38.51
59073;BME280;44859;51.934;15.554;2023-05-03T11:21:33;100839.65;;;13.84;39.66
59073;BME280;44859;51.934;15.554;2023-05-03T11:24:05;100838.59;;;13.65;38.74
59073;BME280;44859;51.934;15.554;2023-05-03T11:26:40;100839.88;;;13.31;39.00
59073;BME280;44859;51.934;15.554;2023-05-03T11:29:13;100836.85;;;13.44;39.07
59073;BME280;44859;51.934;15.554;2023-05-03T11:31:50;100839.73;;;13.82;39.41
59073;BME280;44859;51.934;15.554;2023-05-03T11:34:19;100839.14;;;14.14;38.38
59073;BME280;44859;51.934;15.554;2023-05-03T11:36:56;100840.90;;;14.71;38.53
59073;BME280;44859;51.934;15.554;2023-05-03T11:39:27;100829.50;;;15.11;38.31
59073;BME280;44859;51.934;15.554;2023-05-03T11:42:05;100825.73;;;15.50;37.51
59073;BME280;44859;51.934;15.554;2023-05-03T11:44:33;100829.05;;;15.41;36.65
59073;BME280;44859;51.934;15.554;2023-05-03T11:47:03;100826.95;;;14.95;37.02
59073;BME280;44859;51.934;15.554;2023-05-03T11:49:32;100825.13;;;15.00;37.95
59073;BME280;44859;51.934;15.554;2023-05-03T11:52:01;100826.00;;;15.21;37.97
59073;BME280;44859;51.934;15.554;2023-05-03T11:54:33;100825.69;;;15.44;37.57
59073;BME280;44859;51.934;15.554;2023-05-03T11:57:14;100825.91;;;15.60;37.36
59073;BME280;44859;51.934;15.554;2023-05-03T11:59:46;100825.39;;;15.63;37.87
59073;BME280;44859;51.934;15.554;2023-05-03T12:02:17;100823.89;;;15.91;37.85
59073;BME280;44859;51.934;15.554;2023-05-03T12:04:45;100820.42;;;16.03;36.43
59073;BME280;44859;51.934;15.554;2023-05-03T12:07:15;100826.98;;;15.56;36.91
59073;BME280;44859;51.934;15.554;2023-05-03T12:09:48;100831.25;;;15.26;36.66
59073;BME280;44859;51.934;15.554;2023-05-03T12:12:33;100826.63;;;15.26;36.53
59073;BME280;44859;51.934;15.554;2023-05-03T12:15:05;100827.04;;;15.32;37.06
59073;BME280;44859;51.934;15.554;2023-05-03T12:17:36;100822.83;;;15.58;36.43
59073;BME280;44859;51.934;15.554;2023-05-03T12:20:38;100825.25;;;15.52;37.03
59073;BME280;44859;51.934;15.554;2023-05-03T12:23:10;100816.07;;;15.65;35.64
59073;BME280;44859;51.934;15.554;2023-05-03T12:25:51;100819.21;;;15.26;36.03
59073;BME280;44859;51.934;15.554;2023-05-03T12:28:24;100820.48;;;15.38;36.20
59073;BME280;44859;51.934;15.554;2023-05-03T12:31:04;100818.73;;;15.35;36.15
59073;BME280;44859;51.934;15.554;2023-05-03T12:33:40;100821.98;;;15.23;36.68
59073;BME280;44859;51.934;15.554;2023-05-03T12:36:12;100819.35;;;14.74;36.76
59073;BME280;44859;51.934;15.554;2023-05-03T12:38:45;100821.70;;;14.18;37.16
59073;BME280;44859;51.934;15.554;2023-05-03T12:41:17;100823.08;;;14.03;37.72
59073;BME280;44859;51.934;15.554;2023-05-03T12:44:11;100820.34;;;13.74;37.96
59073;BME280;44859;51.934;15.554;2023-05-03T12:46:44;100821.38;;;13.71;38.21
59073;BME280;44859;51.934;15.554;2023-05-03T12:49:13;100816.95;;;13.90;38.41
59073;BME280;44859;51.934;15.554;2023-05-03T12:51:45;100816.01;;;14.44;38.81
59073;BME280;44859;51.934;15.554;2023-05-03T12:54:36;100807.86;;;14.88;38.36
59073;BME280;44859;51.934;15.554;2023-05-03T12:57:12;100804.18;;;14.77;37.52
59073;BME280;44859;51.934;15.554;2023-05-03T12:59:54;100798.30;;;15.09;37.47
59073;BME280;44859;51.934;15.554;2023-05-03T13:02:30;100791.32;;;15.45;36.96
59073;BME280;44859;51.934;15.554;2023-05-03T13:05:04;100793.91;;;15.79;37.08
59073;BME280;44859;51.934;15.554;2023-05-03T13:07:51;100792.02;;;16.07;36.47
59073;BME280;44859;51.934;15.554;2023-05-03T13:10:31;100789.98;;;16.18;36.23
59073;BME280;44859;51.934;15.554;2023-05-03T13:13:05;100791.43;;;15.92;36.00
59073;BME280;44859;51.934;15.554;2023-05-03T13:15:52;100781.26;;;15.48;35.85
59073;BME280;44859;51.934;15.554;2023-05-03T13:18:43;100794.07;;;15.06;36.46
59073;BME280;44859;51.934;15.554;2023-05-03T13:21:25;100794.91;;;14.82;36.23
59073;BME280;44859;51.934;15.554;2023-05-03T13:24:13;100796.50;;;14.96;36.60
59073;BME280;44859;51.934;15.554;2023-05-03T13:26:53;100791.05;;;15.23;36.74